Time;durP1;ratioP1;P1;durP2;ratioP2;P2;SDS_P1;SDS_P2;PMS_P1;PMS_P2;Temp;Humidity;BMP_temperature;BMP_pressure;BME280_temperature;BME280_humidity;BME280_pressure;Samples;Min_cycle;Max_cycle;Signal;HPM_P1;HPM_P2
2021/06/14 00:01:06;;;;;;;4.65;2.80;;;;;;;12.61;39.05;96330.41;5052551;28;20598;-68
2021/06/14 00:03:31;;;;;;;6.00;2.95;;;;;;;12.71;39.16;96336.34;5066721;28;20116;-68
2021/06/14 00:05:57;;;;;;;6.38;2.90;;;;;;;12.63;39.19;96334.56;5056650;28;20822;-68
2021/06/14 00:08:23;;;;;;;4.57;2.55;;;;;;;12.73;38.59;96336.19;5059339;28;20426;-68
2021/06/14 00:10:50;;;;;;;5.30;2.78;;;;;;;12.84;38.12;96337.63;5067381;28;20104;-68
2021/06/14 00:13:16;;;;;;;6.07;3.03;;;;;;;12.86;38.30;96338.31;5063193;28;20085;-68
2021/06/14 00:15:41;;;;;;;4.78;2.80;;;;;;;12.87;38.13;96340.81;5056225;28;20169;-68
2021/06/14 00:18:07;;;;;;;5.57;3.00;;;;;;;12.72;39.17;96347.88;5042767;28;20561;-68
2021/06/14 00:20:33;;;;;;;4.78;2.80;;;;;;;12.63;39.07;96339.91;5056785;28;20105;-68
2021/06/14 00:22:58;;;;;;;3.95;2.60;;;;;;;12.69;38.74;96337.53;5059289;28;20507;-68
2021/06/14 00:25:25;;;;;;;6.93;3.25;;;;;;;12.59;39.36;96343.94;5057600;28;20100;-68
2021/06/14 00:27:51;;;;;;;5.88;2.70;;;;;;;12.63;39.06;96334.56;5048546;28;20158;-70
2021/06/14 00:30:26;;;;;;;6.55;2.60;;;;;;;12.52;39.48;96327.75;5042449;28;20069;-68
2021/06/14 00:32:52;;;;;;;7.00;2.63;;;;;;;12.63;38.89;96329.22;5055663;28;20549;-68
2021/06/14 00:35:17;;;;;;;5.30;2.70;;;;;;;12.50;39.40;96328.94;5057312;28;20097;-68
2021/06/14 00:37:43;;;;;;;4.40;2.55;;;;;;;12.40;39.23;96334.47;5038013;28;20085;-68
2021/06/14 00:40:08;;;;;;;5.03;2.63;;;;;;;12.37;39.42;96330.31;5060908;28;20120;-68
2021/06/14 00:42:34;;;;;;;4.47;2.45;;;;;;;12.38;39.22;96331.97;5051513;28;20121;-69
2021/06/14 00:45:00;;;;;;;3.88;2.45;;;;;;;12.33;39.94;96326.31;5059868;28;20077;-68
2021/06/14 00:47:25;;;;;;;4.15;2.60;;;;;;;12.35;39.20;96329.66;5063060;28;20557;-68
2021/06/14 00:49:51;;;;;;;5.22;2.50;;;;;;;12.24;39.53;96322.03;5057577;28;20141;-68
2021/06/14 00:52:16;;;;;;;4.30;2.65;;;;;;;12.23;39.71;96317.66;5066993;28;20158;-68
2021/06/14 00:54:42;;;;;;;6.60;2.85;;;;;;;12.19;39.68;96319.00;5050990;28;20081;-68
2021/06/14 00:57:07;;;;;;;4.13;2.40;;;;;;;12.13;39.56;96312.53;5057248;28;20080;-68
2021/06/14 00:59:33;;;;;;;7.97;2.90;;;;;;;11.70;41.01;96312.75;5034548;28;20120;-68
2021/06/14 01:01:58;;;;;;;4.82;2.85;;;;;;;11.75;40.78;96305.06;5056528;28;20102;-68
2021/06/14 01:04:24;;;;;;;4.88;2.88;;;;;;;11.80;40.70;96301.91;5052852;28;20105;-68
2021/06/14 01:06:49;;;;;;;5.43;2.60;;;;;;;11.85;40.40;96302.22;5059166;28;20097;-69
2021/06/14 01:09:15;;;;;;;3.85;2.55;;;;;;;11.83;40.25;96297.03;5067993;28;20100;-68
2021/06/14 01:11:52;;;;;;;6.93;2.83;;;;;;;11.58;41.46;96305.09;5049655;28;20184;-68
2021/06/14 01:14:47;;;;;;;4.97;2.45;;;;;;;11.66;40.73;96309.56;5051814;28;20176;-68
2021/06/14 01:17:18;;;;;;;5.55;3.05;;;;;;;11.63;40.15;96302.75;5053747;28;20119;-68
2021/06/14 01:19:55;;;;;;;5.28;2.90;;;;;;;11.59;40.87;96295.25;5053084;28;20152;-68
2021/06/14 01:22:43;;;;;;;4.40;2.50;;;;;;;11.58;40.74;96294.41;5059294;28;20096;-68
2021/06/14 01:25:33;;;;;;;5.03;2.60;;;;;;;11.56;40.57;96298.25;5052214;28;20611;-68
2021/06/14 01:27:59;;;;;;;4.40;2.70;;;;;;;11.51;40.30;96294.25;5054735;28;20435;-68
2021/06/14 01:30:29;;;;;;;4.97;2.90;;;;;;;11.52;40.73;96301.25;5048062;28;20131;-68
2021/06/14 01:32:55;;;;;;;5.18;2.80;;;;;;;11.51;40.84;96288.09;5048770;28;20101;-68
2021/06/14 01:35:25;;;;;;;5.00;3.15;;;;;;;11.48;40.73;96288.41;5048055;28;20116;-68
2021/06/14 01:37:53;;;;;;;3.80;2.80;;;;;;;11.45;40.63;96280.75;5067396;28;20151;-68
2021/06/14 01:40:19;;;;;;;5.35;2.40;;;;;;;11.46;40.45;96277.91;5054592;28;20136;-69
2021/06/14 01:42:45;;;;;;;3.97;2.30;;;;;;;11.42;41.03;96278.44;5053496;28;20097;-69
2021/06/14 01:45:10;;;;;;;6.55;2.38;;;;;;;11.43;41.17;96278.28;5063855;28;20562;-68
2021/06/14 01:47:36;;;;;;;3.05;2.50;;;;;;;11.33;40.70;96283.78;5056441;28;20212;-68
2021/06/14 01:50:02;;;;;;;5.85;2.90;;;;;;;11.24;41.80;96282.09;5055329;28;20085;-69
2021/06/14 01:52:28;;;;;;;5.72;2.63;;;;;;;11.16;42.23;96276.75;5057340;28;20124;-68
2021/06/14 01:54:54;;;;;;;3.83;2.50;;;;;;;11.17;41.76;96289.06;5063175;28;20093;-68
2021/06/14 01:57:20;;;;;;;7.40;4.35;;;;;;;11.16;41.88;96284.75;5057316;28;20160;-68
2021/06/14 01:59:45;;;;;;;4.70;3.22;;;;;;;11.17;41.51;96286.41;5058304;28;20104;-69
2021/06/14 02:02:11;;;;;;;3.20;2.50;;;;;;;11.20;41.04;96283.41;5059564;28;20081;-68
2021/06/14 02:04:36;;;;;;;4.57;2.50;;;;;;;11.18;41.54;96282.78;5055331;28;20101;-69
2021/06/14 02:07:02;;;;;;;3.92;2.58;;;;;;;11.18;41.55;96283.56;5063712;28;20101;-68
2021/06/14 02:09:27;;;;;;;3.40;2.42;;;;;;;11.11;41.98;96278.09;5062230;28;20539;-69
2021/06/14 02:11:56;;;;;;;4.95;2.63;;;;;;;11.06;42.54;96274.22;5056203;28;20112;-68
2021/06/14 02:14:27;;;;;;;7.88;2.70;;;;;;;11.03;41.93;96278.06;5057048;28;20542;-68
2021/06/14 02:16:53;;;;;;;4.18;2.42;;;;;;;10.99;42.15;96268.72;5060312;28;20124;-68
2021/06/14 02:19:19;;;;;;;3.97;2.40;;;;;;;10.97;42.26;96278.69;5063635;28;20785;-68
2021/06/14 02:21:45;;;;;;;4.88;2.33;;;;;;;11.00;41.89;96281.03;5064419;28;20105;-68
2021/06/14 02:24:11;;;;;;;6.07;2.50;;;;;;;10.94;41.96;96276.34;5061965;28;20557;-68
2021/06/14 02:26:37;;;;;;;6.28;2.58;;;;;;;10.89;42.61;96268.88;5057980;28;20503;-69
2021/06/14 02:29:03;;;;;;;4.30;2.60;;;;;;;10.86;42.53;96267.38;5063339;28;20527;-68
2021/06/14 02:31:28;;;;;;;3.75;2.50;;;;;;;10.79;42.52;96257.53;5046606;28;20113;-68
2021/06/14 02:33:54;;;;;;;5.05;2.30;;;;;;;10.75;42.40;96254.38;5065051;28;20077;-68
2021/06/14 02:36:19;;;;;;;4.20;2.40;;;;;;;10.82;42.34;96251.88;5062846;28;20108;-69
2021/06/14 02:38:45;;;;;;;4.43;2.15;;;;;;;10.84;41.83;96249.88;5052434;28;20593;-69
2021/06/14 02:41:11;;;;;;;5.15;2.53;;;;;;;10.77;42.87;96241.72;5056257;28;20612;-68
2021/06/14 02:43:37;;;;;;;3.70;2.50;;;;;;;10.74;42.28;96244.69;5053765;28;20121;-68
2021/06/14 02:46:03;;;;;;;8.20;2.75;;;;;;;10.67;43.35;96238.38;5036921;28;20080;-68
2021/06/14 02:48:29;;;;;;;3.65;2.35;;;;;;;10.64;43.63;96241.34;5064533;28;20116;-68
2021/06/14 02:50:54;;;;;;;5.47;2.80;;;;;;;10.59;43.63;96241.84;5046726;28;20108;-68
2021/06/14 02:53:22;;;;;;;3.10;2.33;;;;;;;10.63;42.56;96237.84;5059828;28;20069;-68
2021/06/14 02:55:56;;;;;;;4.83;2.60;;;;;;;10.67;41.85;96239.19;5045677;28;20179;-68
2021/06/14 02:58:26;;;;;;;6.10;2.60;;;;;;;10.49;43.68;96237.50;5042165;28;20335;-68
2021/06/14 03:00:51;;;;;;;5.50;2.30;;;;;;;10.54;42.78;96241.50;5053028;28;20105;-68
2021/06/14 03:03:16;;;;;;;3.90;2.40;;;;;;;10.64;42.81;96236.84;5052441;28;20112;-68
2021/06/14 03:05:42;;;;;;;3.75;2.20;;;;;;;10.65;42.41;96241.19;5053338;28;20073;-69
2021/06/14 03:08:08;;;;;;;4.25;2.15;;;;;;;10.67;42.75;96238.38;5054376;28;20116;-68
2021/06/14 03:10:33;;;;;;;3.33;2.30;;;;;;;10.64;42.74;96238.69;5062422;28;20073;-68
2021/06/14 03:12:59;;;;;;;5.57;2.20;;;;;;;10.68;42.59;96234.72;5046536;28;20077;-68
2021/06/14 03:15:25;;;;;;;4.68;2.58;;;;;;;10.70;42.50;96230.03;5029475;28;20112;-68
2021/06/14 03:17:54;;;;;;;4.90;2.60;;;;;;;10.69;42.62;96223.06;5039633;28;20081;-68
2021/06/14 03:20:21;;;;;;;4.82;2.70;;;;;;;10.68;42.07;96224.88;5061556;28;20476;-69
2021/06/14 03:22:47;;;;;;;4.45;2.28;;;;;;;10.70;41.94;96224.72;5044974;28;20490;-69
2021/06/14 03:25:13;;;;;;;3.10;2.20;;;;;;;10.50;43.62;96219.69;5060212;28;20074;-68
2021/06/14 03:27:39;;;;;;;4.90;2.70;;;;;;;10.47;43.55;96222.66;5054521;28;20174;-68
2021/06/14 03:30:05;;;;;;;5.07;2.70;;;;;;;10.58;43.04;96222.34;5049967;28;20093;-68
2021/06/14 03:32:31;;;;;;;5.32;2.50;;;;;;;10.53;43.39;96227.34;5065157;28;20186;-68
2021/06/14 03:34:56;;;;;;;6.13;2.90;;;;;;;10.54;43.66;96231.66;5051349;28;20105;-68
2021/06/14 03:37:22;;;;;;;3.53;2.33;;;;;;;10.56;43.09;96229.69;5041339;28;20076;-68
2021/06/14 03:39:47;;;;;;;9.98;3.10;;;;;;;10.54;43.06;96223.69;5052515;28;20196;-68
2021/06/14 03:42:18;;;;;;;4.22;2.22;;;;;;;10.62;43.36;96231.69;5058188;28;20123;-68
2021/06/14 03:44:43;;;;;;;4.57;2.45;;;;;;;10.64;43.20;96230.72;5062154;28;20151;-68
2021/06/14 03:47:09;;;;;;;3.63;2.30;;;;;;;10.67;43.06;96228.53;5037338;28;20496;-68
2021/06/14 03:49:34;;;;;;;3.90;2.30;;;;;;;10.59;43.54;96226.72;5061293;28;20085;-68
2021/06/14 03:51:59;;;;;;;4.45;2.17;;;;;;;10.64;43.00;96222.72;5056013;28;20100;-68
2021/06/14 03:54:25;;;;;;;4.65;2.45;;;;;;;10.70;43.29;96216.72;5062460;28;20080;-68
2021/06/14 03:56:50;;;;;;;8.45;2.58;;;;;;;10.79;42.78;96222.91;5055701;28;20082;-68
2021/06/14 03:59:16;;;;;;;7.72;2.60;;;;;;;10.87;42.62;96226.41;5068955;28;20164;-68
2021/06/14 04:01:41;;;;;;;4.50;2.42;;;;;;;11.01;42.45;96224.06;5050019;28;20518;-68
2021/06/14 04:05:07;;;;;;;5.95;2.50;;;;;;;11.07;42.15;96231.41;5050897;28;20108;-68
2021/06/14 04:07:01;;;;;;;5.65;2.53;;;;;;;11.05;42.24;96228.06;5050478;28;20472;-68
2021/06/14 04:09:26;;;;;;;3.85;2.40;;;;;;;11.17;42.36;96214.44;5055966;28;20088;-68
2021/06/14 04:11:52;;;;;;;4.68;2.50;;;;;;;11.30;41.94;96216.63;5054455;28;20100;-68
2021/06/14 04:14:18;;;;;;;3.95;2.50;;;;;;;11.30;42.04;96217.47;5043325;28;20519;-68
2021/06/14 04:16:43;;;;;;;4.32;2.15;;;;;;;11.43;41.85;96218.78;5054369;28;20101;-68
2021/06/14 04:19:09;;;;;;;4.18;2.38;;;;;;;11.49;41.82;96213.59;5058304;28;20104;-68
2021/06/14 04:21:34;;;;;;;6.47;2.58;;;;;;;11.68;41.25;96216.91;5059225;28;20107;-68
2021/06/14 04:23:59;;;;;;;5.03;2.25;;;;;;;11.73;41.44;96206.53;5055508;28;20588;-68
2021/06/14 04:26:25;;;;;;;7.00;2.72;;;;;;;11.83;41.12;96211.69;5057848;28;20077;-68
2021/06/14 04:28:51;;;;;;;4.88;2.25;;;;;;;11.99;40.63;96208.13;5059438;28;20445;-68
2021/06/14 04:31:16;;;;;;;6.32;2.63;;;;;;;12.04;41.07;96196.94;5057435;28;20124;-68
2021/06/14 04:33:41;;;;;;;4.35;2.20;;;;;;;12.12;40.81;96201.44;5055803;28;20088;-70
2021/06/14 04:36:07;;;;;;;5.28;2.40;;;;;;;12.16;40.99;96205.41;5066718;28;20103;-68
2021/06/14 04:38:32;;;;;;;5.05;2.58;;;;;;;12.30;40.66;96211.06;5056460;28;20111;-68
2021/06/14 04:40:58;;;;;;;6.32;2.40;;;;;;;12.33;40.77;96205.34;5065613;28;20167;-68
2021/06/14 04:43:24;;;;;;;7.32;2.40;;;;;;;12.38;40.37;96205.66;5063238;28;20121;-68
2021/06/14 04:45:49;;;;;;;4.85;2.50;;;;;;;12.61;40.38;96205.69;5058761;28;20077;-68
2021/06/14 04:48:15;;;;;;;5.43;2.53;;;;;;;12.79;39.93;96207.25;5054661;28;20158;-68
2021/06/14 04:50:40;;;;;;;5.57;2.55;;;;;;;12.86;39.98;96205.53;5057798;28;20078;-68
2021/06/14 04:53:06;;;;;;;4.38;2.40;;;;;;;12.96;39.53;96201.78;5052768;28;20395;-68
2021/06/14 04:55:31;;;;;;;5.63;2.50;;;;;;;12.98;39.58;96203.25;5051302;28;20109;-68
2021/06/14 04:57:56;;;;;;;6.80;2.50;;;;;;;13.18;39.42;96200.97;5053718;28;20077;-68
2021/06/14 05:00:22;;;;;;;3.17;2.17;;;;;;;13.27;39.55;96196.38;5056991;28;20570;-68
2021/06/14 05:02:49;;;;;;;4.13;2.30;;;;;;;13.32;39.25;96201.16;5057378;28;20088;-68
2021/06/14 05:05:15;;;;;;;4.85;2.45;;;;;;;13.56;39.02;96200.09;5051650;28;20133;-68
2021/06/14 05:07:40;;;;;;;5.63;2.42;;;;;;;13.57;38.53;96196.41;5057135;28;20200;-68
2021/06/14 05:10:06;;;;;;;4.35;2.30;;;;;;;13.87;38.17;96192.91;5064477;28;20504;-68
2021/06/14 05:12:31;;;;;;;4.45;2.40;;;;;;;13.99;38.19;96193.31;5053342;28;20101;-68
2021/06/14 05:14:57;;;;;;;3.78;2.30;;;;;;;14.08;37.79;96186.84;5047978;28;20097;-68
2021/06/14 05:17:22;;;;;;;10.80;2.72;;;;;;;14.01;37.52;96196.63;5050013;28;20077;-68
2021/06/14 05:19:48;;;;;;;4.63;2.65;;;;;;;14.23;37.84;96193.19;5062187;28;20105;-68
2021/06/14 05:22:13;;;;;;;5.70;2.60;;;;;;;14.42;37.30;96197.13;5061760;28;20097;-68
2021/06/14 05:24:39;;;;;;;6.10;2.92;;;;;;;14.38;36.66;96210.06;5064325;28;20144;-68
2021/06/14 05:27:05;;;;;;;4.78;2.38;;;;;;;14.56;37.38;96206.16;5038685;28;20112;-68
2021/06/14 05:29:30;;;;;;;4.53;2.20;;;;;;;14.78;36.79;96201.66;5058608;28;20141;-68
2021/06/14 05:31:57;;;;;;;3.53;2.13;;;;;;;14.71;36.15;96196.22;5057367;28;20772;-68
2021/06/14 05:34:23;;;;;;;5.47;2.67;;;;;;;14.70;36.42;96194.56;5052222;28;20105;-68
2021/06/14 05:36:48;;;;;;;5.53;2.60;;;;;;;14.92;36.56;96196.47;5053605;28;20102;-68
2021/06/14 05:39:14;;;;;;;4.72;2.60;;;;;;;14.82;36.55;96196.78;5058790;28;20101;-68
2021/06/14 05:41:39;;;;;;;5.13;2.50;;;;;;;15.10;36.14;96190.63;5063147;28;20125;-68
2021/06/14 05:44:05;;;;;;;8.23;2.70;;;;;;;14.98;35.48;96195.69;5065002;28;20123;-68
2021/06/14 05:46:30;;;;;;;4.47;2.60;;;;;;;15.24;35.24;96192.38;5055013;28;20081;-68
2021/06/14 05:48:55;;;;;;;6.45;3.45;;;;;;;15.09;36.24;96183.59;5055301;28;20139;-68
2021/06/14 05:51:21;;;;;;;7.63;3.58;;;;;;;15.08;35.73;96179.25;5059332;28;20565;-68
2021/06/14 05:53:48;;;;;;;6.97;4.20;;;;;;;15.09;35.84;96175.56;5058990;28;20077;-68
2021/06/14 05:56:14;;;;;;;7.18;3.58;;;;;;;14.90;35.63;96171.69;5053970;28;20192;-68
2021/06/14 05:58:39;;;;;;;8.95;4.70;;;;;;;15.08;35.30;96173.91;5058568;28;20176;-67
2021/06/14 06:01:05;;;;;;;10.60;5.90;;;;;;;14.98;36.03;96180.44;5051441;28;20310;-67
2021/06/14 06:03:30;;;;;;;11.63;8.05;;;;;;;15.15;35.12;96179.31;5052625;28;20109;-67
2021/06/14 06:05:56;;;;;;;13.98;10.35;;;;;;;15.32;34.77;96171.81;5051725;28;20089;-67
2021/06/14 06:08:21;;;;;;;13.85;9.00;;;;;;;15.49;34.70;96180.41;5052688;28;20407;-67
2021/06/14 06:10:47;;;;;;;13.90;10.57;;;;;;;15.49;34.96;96177.72;5054762;28;20179;-68
2021/06/14 06:13:12;;;;;;;16.23;11.85;;;;;;;15.65;34.39;96179.31;5050830;28;20081;-67
2021/06/14 06:15:37;;;;;;;5.45;3.17;;;;;;;15.87;33.47;96192.63;5063488;28;20109;-67
2021/06/14 06:18:03;;;;;;;17.00;12.45;;;;;;;15.87;33.74;96187.25;5063484;28;20085;-67
2021/06/14 06:20:28;;;;;;;18.83;14.10;;;;;;;15.77;34.05;96202.91;5063100;28;20101;-68
2021/06/14 06:22:54;;;;;;;19.02;12.35;;;;;;;15.94;33.84;96195.38;5054382;28;20116;-67
2021/06/14 06:25:20;;;;;;;20.48;14.27;;;;;;;15.91;33.86;96191.22;5058072;28;20093;-67
2021/06/14 06:27:47;;;;;;;15.27;9.43;;;;;;;16.08;33.78;96193.59;5031652;28;20409;-67
2021/06/14 06:30:14;;;;;;;11.50;7.75;;;;;;;16.11;33.50;96183.25;5053255;28;20090;-67
2021/06/14 06:32:39;;;;;;;12.60;7.20;;;;;;;16.30;33.40;96190.78;5055147;28;20105;-67
2021/06/14 06:35:05;;;;;;;32.30;26.05;;;;;;;16.55;32.80;96187.59;5053358;28;20141;-67
2021/06/14 06:37:31;;;;;;;47.03;38.67;;;;;;;16.20;33.51;96186.63;5028238;28;20503;-67
2021/06/14 06:39:56;;;;;;;33.63;24.58;;;;;;;16.25;33.21;96192.22;5051333;28;20097;-67
2021/06/14 06:42:22;;;;;;;13.52;8.43;;;;;;;16.52;33.17;96192.34;5049020;28;20121;-67
2021/06/14 06:44:47;;;;;;;8.00;4.95;;;;;;;16.96;32.33;96185.81;5051826;28;20100;-67
2021/06/14 06:47:13;;;;;;;8.95;6.25;;;;;;;16.95;32.21;96187.66;5051332;28;20176;-67
2021/06/14 06:49:38;;;;;;;16.30;12.23;;;;;;;16.90;32.35;96196.34;5057787;28;20092;-67
2021/06/14 06:52:04;;;;;;;16.75;11.73;;;;;;;16.86;32.42;96196.97;5050632;28;20105;-67
2021/06/14 06:54:29;;;;;;;12.18;7.40;;;;;;;17.01;32.36;96194.94;5051178;28;20116;-67
2021/06/14 06:56:55;;;;;;;31.05;23.88;;;;;;;17.06;32.36;96201.56;5054435;28;20113;-67
2021/06/14 06:59:21;;;;;;;30.25;22.95;;;;;;;16.98;32.10;96194.50;5045421;28;20098;-67
2021/06/14 07:01:47;;;;;;;11.43;6.78;;;;;;;17.48;31.67;96191.44;5049237;28;20097;-67
2021/06/14 07:04:12;;;;;;;19.42;12.18;;;;;;;17.60;31.49;96191.63;5063405;28;20121;-67
2021/06/14 07:06:38;;;;;;;23.08;17.38;;;;;;;17.88;31.20;96192.44;5046867;28;20184;-67
2021/06/14 07:09:04;;;;;;;12.70;7.15;;;;;;;17.86;31.39;96191.81;5059246;28;20130;-69
2021/06/14 07:11:29;;;;;;;16.27;11.30;;;;;;;18.34;30.34;96190.63;5057762;28;20139;-67
2021/06/14 07:13:55;;;;;;;17.05;10.32;;;;;;;18.29;30.85;96191.25;5049890;28;20080;-67
2021/06/14 07:16:21;;;;;;;10.75;7.40;;;;;;;18.32;30.88;96195.38;5036892;28;20101;-67
2021/06/14 07:18:46;;;;;;;17.13;10.48;;;;;;;18.53;30.62;96191.56;5059282;28;20108;-67
2021/06/14 07:21:12;;;;;;;3.95;2.50;;;;;;;18.71;29.79;96198.16;5055807;28;20073;-68
2021/06/14 07:23:38;;;;;;;12.07;6.32;;;;;;;18.56;29.90;96201.91;5044884;28;20116;-67
2021/06/14 07:26:03;;;;;;;10.32;7.13;;;;;;;18.63;29.93;96196.53;5052399;28;20086;-67
2021/06/14 07:28:29;;;;;;;5.53;3.95;;;;;;;18.98;29.09;96189.91;5052803;28;20160;-67
2021/06/14 07:30:54;;;;;;;13.30;6.28;;;;;;;18.79;29.75;96184.41;5050980;28;20113;-68
2021/06/14 07:33:19;;;;;;;8.65;3.58;;;;;;;19.19;28.90;96187.88;5059026;28;20081;-67
2021/06/14 07:35:45;;;;;;;6.18;3.20;;;;;;;19.51;28.33;96177.03;5053795;28;20113;-67
2021/06/14 07:38:12;;;;;;;11.25;6.45;;;;;;;19.27;28.54;96182.22;5050990;28;20081;-68
2021/06/14 07:40:37;;;;;;;7.85;3.22;;;;;;;19.38;28.07;96185.25;5054428;28;20125;-67
2021/06/14 07:43:04;;;;;;;4.40;2.60;;;;;;;19.59;28.32;96184.03;5052237;28;20105;-67
2021/06/14 07:45:29;;;;;;;8.88;3.10;;;;;;;17.58;30.12;96196.41;5050639;28;20564;-67
2021/06/14 07:47:55;;;;;;;8.00;4.93;;;;;;;18.35;29.61;96184.19;5055834;28;20108;-67
2021/06/14 07:50:20;;;;;;;10.65;3.78;;;;;;;17.96;29.94;96192.22;5051376;28;20088;-67
2021/06/14 07:52:46;;;;;;;9.80;5.47;;;;;;;18.44;30.86;96182.09;5047020;28;20121;-68
2021/06/14 07:55:12;;;;;;;5.13;2.45;;;;;;;18.98;29.13;96187.19;5049637;28;20108;-67
2021/06/14 07:57:37;;;;;;;5.95;3.08;;;;;;;18.10;29.91;96187.63;5059592;28;20089;-67
2021/06/14 08:00:04;;;;;;;5.70;3.00;;;;;;;18.79;29.54;96179.00;5047802;28;20100;-67
2021/06/14 08:02:30;;;;;;;6.63;3.87;;;;;;;19.22;29.18;96168.53;5058122;28;20212;-67
2021/06/14 08:04:55;;;;;;;5.97;3.53;;;;;;;19.47;28.33;96181.22;5057239;28;20109;-67
2021/06/14 08:07:21;;;;;;;8.00;3.97;;;;;;;19.71;28.04;96176.84;5052614;28;20113;-66
2021/06/14 08:09:51;;;;;;;7.68;4.50;;;;;;;19.67;27.83;96178.34;5051918;28;20096;-67
2021/06/14 08:12:16;;;;;;;6.00;3.13;;;;;;;20.14;27.25;96181.59;5048757;28;20108;-67
2021/06/14 08:14:42;;;;;;;8.02;3.53;;;;;;;20.33;27.44;96183.25;5049270;28;20078;-67
2021/06/14 08:17:07;;;;;;;5.40;3.13;;;;;;;20.45;27.70;96179.78;5053071;28;20084;-67
2021/06/14 08:19:39;;;;;;;6.72;4.43;;;;;;;20.14;27.26;96184.31;5050832;28;20096;-67
2021/06/14 08:22:30;;;;;;;9.38;4.82;;;;;;;20.57;27.03;96182.53;5057538;28;20099;-67
2021/06/14 08:25:06;;;;;;;7.35;3.72;;;;;;;20.59;26.93;96197.47;5052334;28;20141;-67
2021/06/14 08:27:42;;;;;;;12.13;5.70;;;;;;;20.52;26.71;96188.63;5048770;28;20566;-67
2021/06/14 08:30:10;;;;;;;7.82;4.38;;;;;;;20.95;27.21;96181.41;5047308;28;20077;-67
2021/06/14 08:32:36;;;;;;;10.65;4.53;;;;;;;20.62;26.76;96185.38;5058656;28;20093;-67
2021/06/14 08:35:03;;;;;;;6.88;4.38;;;;;;;21.18;25.84;96184.41;5046344;28;20140;-67
2021/06/14 08:37:29;;;;;;;8.38;5.35;;;;;;;21.34;26.07;96188.31;5060254;28;20104;-67
2021/06/14 08:39:54;;;;;;;7.25;4.25;;;;;;;21.36;26.57;96192.47;5050817;28;20147;-67
2021/06/14 08:42:20;;;;;;;10.50;5.32;;;;;;;21.76;25.61;96182.00;5054964;28;20222;-67
2021/06/14 08:44:45;;;;;;;8.05;6.00;;;;;;;21.54;25.70;96190.69;5059214;28;20282;-67
2021/06/14 08:47:11;;;;;;;6.43;2.63;;;;;;;22.14;24.81;96187.97;5055905;28;20097;-67
2021/06/14 08:49:36;;;;;;;7.00;3.78;;;;;;;21.99;25.56;96192.00;5031903;28;20191;-66
2021/06/14 08:52:02;;;;;;;5.45;3.10;;;;;;;22.06;24.87;96185.63;5063302;28;20101;-67
2021/06/14 08:54:27;;;;;;;6.93;2.70;;;;;;;22.60;24.74;96177.25;5049549;28;20073;-67
2021/06/14 08:56:54;;;;;;;4.95;3.63;;;;;;;22.45;25.96;96175.03;5055444;28;20097;-67
2021/06/14 08:59:19;;;;;;;6.13;2.90;;;;;;;22.83;25.81;96177.38;5042240;28;20191;-67
2021/06/14 09:01:45;;;;;;;5.80;3.35;;;;;;;23.01;24.60;96165.50;5058591;28;20089;-67
2021/06/14 09:04:10;;;;;;;5.72;2.60;;;;;;;23.15;24.50;96158.69;5060321;28;20105;-67
2021/06/14 09:06:36;;;;;;;4.32;3.00;;;;;;;23.10;24.21;96155.84;5058814;28;20138;-67
2021/06/14 09:09:04;;;;;;;6.78;3.58;;;;;;;22.66;24.56;96168.13;5059744;28;20525;-67
2021/06/14 09:11:31;;;;;;;4.63;2.90;;;;;;;23.04;24.83;96156.84;5051822;28;20109;-67
2021/06/14 09:13:58;;;;;;;5.33;3.10;;;;;;;23.32;23.67;96155.16;5052474;28;20081;-66
2021/06/14 09:16:24;;;;;;;;;;;;;;;23.46;23.90;96150.22;5048166;28;20093;-66
2021/06/14 09:18:50;;;;;;;5.82;3.13;;;;;;;23.38;22.99;96151.44;5056575;28;19988;-67
2021/06/14 09:21:17;;;;;;;4.05;2.40;;;;;;;23.39;23.13;96147.66;5063403;28;20132;-67
2021/06/14 09:23:52;;;;;;;4.88;3.33;;;;;;;23.38;23.62;96143.28;5049413;28;20120;-67
2021/06/14 09:26:23;;;;;;;4.45;2.50;;;;;;;23.87;23.71;96144.56;5056195;28;20522;-67
2021/06/14 09:28:54;;;;;;;6.63;3.10;;;;;;;23.76;23.43;96134.63;5047518;28;20109;-67
2021/06/14 09:31:20;;;;;;;8.18;3.05;;;;;;;22.96;23.49;96130.94;5051842;28;20183;-67
2021/06/14 09:33:46;;;;;;;7.93;2.50;;;;;;;22.92;23.68;96141.44;5060228;28;20118;-67
2021/06/14 09:36:11;;;;;;;6.60;2.60;;;;;;;22.12;24.24;96134.00;5063811;28;20109;-66
2021/06/14 09:38:37;;;;;;;11.25;7.88;;;;;;;22.80;23.54;96132.53;5051036;28;20088;-66
2021/06/14 09:41:11;;;;;;;18.20;10.60;;;;;;;23.09;24.69;96129.78;5058886;28;20572;-67
2021/06/14 09:43:38;;;;;;;6.82;4.35;;;;;;;23.60;23.95;96123.50;5051700;28;20530;-66
2021/06/14 09:46:27;;;;;;;5.43;2.50;;;;;;;23.30;22.74;96119.28;5048867;28;20658;-66
2021/06/14 09:48:53;;;;;;;4.68;2.50;;;;;;;22.06;25.38;96117.88;5051847;28;20498;-67
2021/06/14 09:51:18;;;;;;;10.00;5.90;;;;;;;22.82;24.53;96114.16;5049043;28;20101;-71
2021/06/14 09:53:49;;;;;;;5.88;3.17;;;;;;;23.40;24.51;96115.88;5053215;28;20080;-66
2021/06/14 09:56:22;;;;;;;6.68;5.00;;;;;;;23.87;23.41;96109.22;5059488;28;20756;-66
2021/06/14 09:58:49;;;;;;;7.68;2.60;;;;;;;24.30;22.54;96108.63;5057667;28;20450;-66
2021/06/14 10:01:25;;;;;;;;;;;;;;;24.53;23.00;96106.69;5056457;28;20080;-66
2021/06/14 10:03:50;;;;;;;7.13;3.65;;;;;;;24.80;23.45;96116.75;5053927;28;20007;-67
2021/06/14 10:06:33;;;;;;;5.93;4.05;;;;;;;24.64;23.15;96115.81;5051539;28;20078;-67
2021/06/14 10:08:58;;;;;;;5.38;2.63;;;;;;;23.74;23.52;96106.88;5038914;28;20151;-66
2021/06/14 10:11:31;;;;;;;5.13;2.72;;;;;;;24.82;22.52;96112.69;5057885;28;20105;-68
2021/06/14 10:13:56;;;;;;;8.40;5.13;;;;;;;24.66;23.19;96102.75;5067354;28;20129;-66
2021/06/14 10:16:23;;;;;;;7.30;4.95;;;;;;;25.11;22.57;96097.97;5037533;28;20500;-66
2021/06/14 10:18:56;;;;;;;5.05;2.60;;;;;;;25.58;22.79;96104.59;5058731;28;20100;-67
2021/06/14 10:21:38;;;;;;;4.15;2.60;;;;;;;25.71;21.57;96097.84;5053459;28;20073;-67
2021/06/14 10:24:06;;;;;;;6.47;2.42;;;;;;;25.45;21.03;96100.41;5056578;28;20127;-67
2021/06/14 10:26:32;;;;;;;6.65;4.22;;;;;;;25.55;21.87;96101.56;5055397;28;20073;-67
2021/06/14 10:28:57;;;;;;;7.93;5.20;;;;;;;25.76;21.07;96088.84;5054548;28;20518;-67
2021/06/14 10:31:23;;;;;;;3.92;2.28;;;;;;;26.40;20.83;96093.50;5056277;28;20764;-67
2021/06/14 10:33:50;;;;;;;7.80;2.90;;;;;;;25.65;20.63;96093.44;5034801;28;20084;-67
2021/06/14 10:36:15;;;;;;;6.53;2.35;;;;;;;23.81;22.20;96099.34;5037148;28;20109;-66
2021/06/14 10:38:43;;;;;;;5.00;2.55;;;;;;;22.30;24.28;96104.22;5055644;28;20584;-67
2021/06/14 10:41:09;;;;;;;4.97;3.25;;;;;;;23.84;23.76;96096.13;5047093;28;20137;-67
2021/06/14 10:43:34;;;;;;;6.03;2.40;;;;;;;24.83;23.19;96095.28;5053852;28;20474;-66
2021/06/14 10:46:00;;;;;;;4.75;3.15;;;;;;;25.07;21.85;96085.97;5032818;28;20081;-67
2021/06/14 10:48:35;;;;;;;5.60;2.75;;;;;;;25.45;21.77;96094.94;5038924;28;20109;-66
2021/06/14 10:51:03;;;;;;;3.85;2.30;;;;;;;25.60;21.28;96090.72;5040370;28;20104;-67
2021/06/14 10:53:31;;;;;;;3.58;2.42;;;;;;;25.90;22.15;96088.38;5039030;28;20077;-66
2021/06/14 10:55:57;;;;;;;8.73;6.50;;;;;;;25.93;21.48;96080.47;5057388;28;20936;-69
2021/06/14 10:58:23;;;;;;;6.80;4.47;;;;;;;25.99;21.63;96073.13;5056569;28;20177;-67
2021/06/14 11:00:58;;;;;;;5.43;3.80;;;;;;;26.47;21.07;96083.13;5057672;28;20132;-67
2021/06/14 11:03:24;;;;;;;4.82;2.78;;;;;;;26.19;21.05;96080.63;5055642;28;20116;-67
2021/06/14 11:05:57;;;;;;;3.55;2.22;;;;;;;26.33;20.97;96069.16;5057864;28;20577;-66
2021/06/14 11:08:23;;;;;;;3.55;2.30;;;;;;;26.59;20.36;96074.72;5048648;28;20171;-66
2021/06/14 11:10:58;;;;;;;3.85;2.30;;;;;;;26.69;20.56;96072.00;5051964;28;20085;-67
2021/06/14 11:13:24;;;;;;;6.55;2.20;;;;;;;26.91;21.64;96067.38;5054722;28;20546;-67
2021/06/14 11:15:52;;;;;;;11.40;4.93;;;;;;;26.49;20.66;96067.31;5048526;28;20097;-66
2021/06/14 11:18:25;;;;;;;6.43;2.78;;;;;;;27.05;21.09;96068.44;5050288;28;20089;-66
2021/06/14 11:21:06;;;;;;;3.65;2.50;;;;;;;26.23;21.84;96067.25;5054090;28;20104;-67
2021/06/14 11:23:32;;;;;;;3.72;2.70;;;;;;;26.96;20.59;96065.44;5056308;28;20135;-67
2021/06/14 11:25:58;;;;;;;5.63;2.33;;;;;;;27.21;20.58;96066.53;5066374;28;20073;-67
2021/06/14 11:28:36;;;;;;;7.18;2.58;;;;;;;25.50;21.98;96085.19;5053878;28;20108;-66
2021/06/14 11:31:15;;;;;;;4.57;2.45;;;;;;;25.97;22.11;96073.41;5058018;28;20104;-66